Time;durP1;ratioP1;P1;durP2;ratioP2;P2;SDS_P1;SDS_P2;PMS_P1;PMS_P2;Temp;Humidity;BMP_temperature;BMP_pressure;BME280_temperature;BME280_humidity;BME280_pressure;Samples;Min_cycle;Max_cycle;Signal;HPM_P1;HPM_P2
2023/01/07 00:01:08;;;;;;;1.75;1.13;;;;;;;10.66;100.00;101632.50;5056699;27;96723;-30
2023/01/07 00:03:34;;;;;;;2.10;1.33;;;;;;;10.61;100.00;101625.47;5058360;27;96787;-28
2023/01/07 00:06:01;;;;;;;1.70;0.85;;;;;;;10.61;100.00;101632.72;5056108;27;100852;-29
2023/01/07 00:08:31;;;;;;;1.70;1.10;;;;;;;10.60;100.00;101634.53;5057538;27;97322;-28
2023/01/07 00:11:00;;;;;;;3.40;1.20;;;;;;;10.62;100.00;101624.50;5056473;27;96580;-29
2023/01/07 00:13:26;;;;;;;1.77;1.30;;;;;;;10.60;100.00;101622.84;5056838;27;96566;-29
2023/01/07 00:15:56;;;;;;;2.63;1.15;;;;;;;10.57;100.00;101620.28;5057482;27;97489;-29
2023/01/07 00:18:22;;;;;;;6.03;1.15;;;;;;;10.56;100.00;101618.53;5056054;27;100735;-29
2023/01/07 00:20:47;;;;;;;1.83;1.05;;;;;;;10.54;100.00;101613.19;5057137;27;96704;-29
2023/01/07 00:23:12;;;;;;;2.10;1.25;;;;;;;10.55;100.00;101620.34;5057343;27;97006;-28
2023/01/07 00:25:38;;;;;;;2.55;1.45;;;;;;;10.54;100.00;101615.03;5056226;27;97557;-28
2023/01/07 00:28:03;;;;;;;3.03;0.95;;;;;;;10.51;100.00;101616.06;5056981;27;99305;-29
2023/01/07 00:30:28;;;;;;;3.05;1.40;;;;;;;10.50;100.00;101616.13;5056481;27;96572;-28
2023/01/07 00:35:25;;;;;;;2.13;1.20;;;;;;;10.50;100.00;101613.41;5057085;27;97552;-29
2023/01/07 00:37:53;;;;;;;3.03;1.58;;;;;;;10.49;100.00;101608.97;5057227;27;99161;-28
2023/01/07 00:40:19;;;;;;;2.45;1.52;;;;;;;10.50;100.00;101613.41;5055844;27;96805;-29
2023/01/07 00:42:54;;;;;;;1.77;1.00;;;;;;;10.54;100.00;101612.31;5056075;27;96980;-29
2023/01/07 00:45:24;;;;;;;2.25;0.85;;;;;;;10.58;99.89;101619.31;5055194;27;101020;-29
2023/01/07 00:47:53;;;;;;;1.92;1.23;;;;;;;10.56;99.70;101607.69;5055289;27;100831;-28
2023/01/07 00:50:23;;;;;;;3.10;1.38;;;;;;;10.59;99.85;101607.53;5055744;27;96807;-29
2023/01/07 00:52:48;;;;;;;1.83;1.13;;;;;;;10.57;99.81;101596.78;5055803;27;96824;-28
2023/01/07 00:55:14;;;;;;;4.75;1.00;;;;;;;10.61;99.72;101600.22;5057067;27;97954;-28
2023/01/07 00:57:43;;;;;;;1.77;1.05;;;;;;;10.57;99.47;101599.47;5055297;27;99096;-30
2023/01/07 01:00:11;;;;;;;1.33;0.98;;;;;;;10.59;99.55;101597.56;5055569;27;96700;-29
2023/01/07 01:02:37;;;;;;;3.22;1.48;;;;;;;10.60;99.47;101591.19;5055938;27;96773;-29
2023/01/07 01:05:03;;;;;;;2.10;1.05;;;;;;;10.57;99.21;101588.66;5056612;27;99296;-28
2023/01/07 01:07:29;;;;;;;1.88;1.30;;;;;;;10.61;99.22;101583.97;5055111;27;101012;-29
2023/01/07 01:09:54;;;;;;;2.15;1.35;;;;;;;10.59;99.30;101581.31;5054710;27;96629;-28
2023/01/07 01:12:19;;;;;;;3.10;1.00;;;;;;;10.59;98.71;101583.16;5056809;27;96861;-29
2023/01/07 01:14:45;;;;;;;2.75;1.40;;;;;;;10.61;99.17;101587.53;5056423;27;97995;-29
2023/01/07 01:17:10;;;;;;;1.38;1.00;;;;;;;10.60;99.06;101572.22;5056531;27;101465;-28
2023/01/07 01:19:35;;;;;;;2.97;1.15;;;;;;;10.62;98.92;101573.03;5057005;27;96476;-28
2023/01/07 01:22:01;;;;;;;4.15;1.45;;;;;;;10.61;98.99;101571.28;5056603;27;96837;-29
2023/01/07 01:24:26;;;;;;;2.13;1.17;;;;;;;10.61;98.90;101556.88;5056597;27;97913;-29
2023/01/07 01:26:51;;;;;;;1.40;1.02;;;;;;;10.60;98.54;101564.09;5056253;27;97779;-28
2023/01/07 01:29:17;;;;;;;3.55;1.13;;;;;;;10.60;98.67;101561.38;5056697;27;96524;-29
2023/01/07 01:31:42;;;;;;;1.65;1.13;;;;;;;10.62;98.37;101567.59;5056817;27;96797;-28
2023/01/07 01:34:07;;;;;;;1.10;0.75;;;;;;;10.64;98.56;101562.13;5055925;27;97710;-29
2023/01/07 01:36:33;;;;;;;1.23;0.85;;;;;;;10.60;98.42;101560.53;5056365;27;97751;-29
2023/01/07 01:38:58;;;;;;;1.42;1.10;;;;;;;10.62;98.40;101556.78;5056669;27;96613;-29
2023/01/07 01:41:23;;;;;;;1.60;1.20;;;;;;;10.59;98.63;101550.66;5056174;27;96755;-29
2023/01/07 01:43:50;;;;;;;2.63;1.48;;;;;;;10.58;98.58;101554.28;5056000;27;101084;-29
2023/01/07 01:46:22;;;;;;;2.20;1.27;;;;;;;10.57;98.37;101556.13;5055922;27;98795;-29
2023/01/07 01:48:53;;;;;;;;;;;;;;;10.55;98.74;101554.47;5055374;27;96607;-29
2023/01/07 01:51:23;;;;;;;1.60;1.20;;;;;;;10.49;98.67;101547.53;5056655;27;96859;-28
2023/01/07 01:53:49;;;;;;;1.88;1.40;;;;;;;10.48;98.97;101551.19;5056182;27;97518;-28
2023/01/07 01:56:20;;;;;;;1.55;1.08;;;;;;;10.45;98.65;101543.22;5055825;27;97197;-29
2023/01/07 01:58:54;;;;;;;3.53;1.40;;;;;;;10.43;98.98;101546.94;5054206;27;96734;-28
2023/01/07 02:01:20;;;;;;;2.25;1.30;;;;;;;10.44;98.92;101551.41;5054791;27;96814;-28
2023/01/07 02:03:47;;;;;;;1.10;0.88;;;;;;;10.40;98.71;101548.84;5055957;27;97372;-29
2023/01/07 02:06:20;;;;;;;2.95;1.38;;;;;;;10.37;98.63;101550.84;5055648;27;97917;-28
2023/01/07 02:08:45;;;;;;;3.35;1.88;;;;;;;10.37;98.79;101549.00;5054717;27;96723;-28
2023/01/07 02:11:17;;;;;;;11.13;2.30;;;;;;;10.35;98.69;101544.63;5055949;27;96853;-29
2023/01/07 02:14:06;;;;;;;2.97;1.50;;;;;;;10.28;98.82;101544.03;5055359;27;98018;-29
2023/01/07 02:16:53;;;;;;;2.15;1.30;;;;;;;10.26;98.93;101545.91;5055993;27;97262;-28
2023/01/07 02:19:56;;;;;;;5.60;2.22;;;;;;;10.24;98.89;101542.41;5056066;27;96594;-29
2023/01/07 02:22:42;;;;;;;4.40;1.90;;;;;;;10.23;98.78;101539.78;5055500;27;97780;-29
2023/01/07 02:25:29;;;;;;;2.38;1.48;;;;;;;10.20;98.89;101538.06;5054997;27;97997;-28
2023/01/07 02:28:19;;;;;;;6.38;1.23;;;;;;;10.17;98.88;101536.41;5053603;27;100835;-29
2023/01/07 02:31:08;;;;;;;4.43;1.50;;;;;;;10.16;98.79;101529.25;5055905;27;96647;-29
2023/01/07 02:34:13;;;;;;;3.67;1.80;;;;;;;10.13;98.91;101529.41;5054415;27;96793;-29
2023/01/07 02:36:47;;;;;;;1.20;0.98;;;;;;;10.13;98.82;101528.50;4972376;28;101141;-28
2023/01/07 02:39:42;;;;;;;2.83;1.35;;;;;;;10.09;98.48;101527.78;5044816;27;99724;-28
2023/01/07 02:42:25;;;;;;;1.58;1.17;;;;;;;10.10;98.68;101518.69;5054208;27;96570;-28
2023/01/07 02:44:58;;;;;;;2.22;1.42;;;;;;;10.07;98.57;101524.28;5054541;27;96791;-29
2023/01/07 02:47:46;;;;;;;1.95;1.27;;;;;;;10.08;98.56;101522.44;5053896;27;101515;-29
2023/01/07 02:50:11;;;;;;;3.40;1.55;;;;;;;10.05;98.30;101512.66;5055108;27;97946;-29
2023/01/07 02:52:37;;;;;;;2.15;1.55;;;;;;;10.05;98.24;101509.06;5054902;27;96498;-28
2023/01/07 02:55:11;;;;;;;2.33;1.65;;;;;;;10.04;98.01;101505.50;5055184;27;96828;-28
2023/01/07 02:57:51;;;;;;;5.20;1.27;;;;;;;10.06;98.09;101505.41;5055209;27;98350;-28
2023/01/07 03:00:52;;;;;;;2.50;1.38;;;;;;;10.04;97.71;101505.50;5053666;27;100773;-29
2023/01/07 03:03:41;;;;;;;2.20;1.00;;;;;;;10.04;97.87;101505.50;4972481;28;96827;-29
2023/01/07 03:06:29;;;;;;;3.17;1.73;;;;;;;10.03;97.82;101503.72;5021424;27;96819;-29
2023/01/07 03:09:18;;;;;;;2.15;1.05;;;;;;;10.01;97.61;101497.53;5054944;27;97668;-29
2023/01/07 03:11:51;;;;;;;1.20;0.88;;;;;;;10.00;98.00;101495.75;5055264;27;97893;-30
2023/01/07 03:14:21;;;;;;;2.83;1.48;;;;;;;9.98;97.66;101494.94;5055420;27;96462;-29
2023/01/07 03:16:53;;;;;;;1.55;1.10;;;;;;;9.97;97.67;101490.50;5053628;27;96733;-29
2023/01/07 03:19:24;;;;;;;1.85;1.42;;;;;;;9.96;97.57;101486.94;5052887;27;101468;-30
2023/01/07 03:21:51;;;;;;;1.42;0.98;;;;;;;9.94;97.55;101491.53;5053130;27;99264;-29
2023/01/07 03:24:18;;;;;;;2.28;1.30;;;;;;;9.94;97.74;101496.06;5054890;27;96620;-29
2023/01/07 03:26:50;;;;;;;2.00;1.25;;;;;;;9.90;97.60;101478.22;5056729;27;96613;-29
2023/01/07 03:29:18;;;;;;;1.25;0.98;;;;;;;9.88;97.63;101491.81;5056774;27;100828;-28
2023/01/07 03:32:01;;;;;;;2.15;1.27;;;;;;;9.88;97.82;101483.69;5056952;27;100826;-28
2023/01/07 03:34:28;;;;;;;2.25;1.27;;;;;;;9.87;97.71;101473.84;5056860;27;96549;-28
2023/01/07 03:37:02;;;;;;;3.00;1.55;;;;;;;9.89;97.72;101474.66;5057463;27;96861;-29
2023/01/07 03:39:30;;;;;;;3.70;1.48;;;;;;;9.88;97.73;101481.00;5056451;27;100961;-29
2023/01/07 03:44:40;;;;;;;2.85;1.45;;;;;;;9.84;97.89;101473.97;5058200;27;96628;-28
2023/01/07 03:47:06;;;;;;;2.25;1.35;;;;;;;9.89;97.74;101471.03;5057899;27;96849;-29
2023/01/07 03:49:34;;;;;;;3.15;1.38;;;;;;;9.89;97.88;101471.03;5058021;27;97432;-28
2023/01/07 03:51:59;;;;;;;4.13;1.63;;;;;;;9.90;97.72;101467.41;5056498;27;100924;-29
2023/01/07 03:54:25;;;;;;;1.63;1.20;;;;;;;9.87;97.93;101457.59;5058332;27;96592;-28
2023/01/07 03:56:50;;;;;;;2.40;1.58;;;;;;;9.91;98.04;101469.13;5058209;27;96770;-29
2023/01/07 03:59:15;;;;;;;1.85;1.25;;;;;;;9.89;97.94;101452.09;5057922;27;97349;-29
2023/01/07 04:01:41;;;;;;;4.82;1.40;;;;;;;9.92;97.85;101460.09;5057997;27;102763;-29
2023/01/07 04:04:06;;;;;;;2.28;1.58;;;;;;;9.92;97.74;101463.66;5058180;27;96627;-29
2023/01/07 04:06:32;;;;;;;3.72;1.98;;;;;;;9.92;97.96;101449.25;5058159;27;96795;-28
2023/01/07 04:08:57;;;;;;;6.60;1.48;;;;;;;9.93;97.98;101449.16;5055821;27;98358;-29
2023/01/07 04:11:22;;;;;;;5.45;1.27;;;;;;;9.93;97.95;101446.47;5057642;27;97363;-30
2023/01/07 04:13:48;;;;;;;2.72;1.65;;;;;;;9.94;97.90;101440.13;5057909;27;96476;-28
2023/01/07 04:16:13;;;;;;;7.47;1.58;;;;;;;9.94;98.10;101439.25;5057700;27;96923;-28
2023/01/07 04:18:38;;;;;;;2.00;1.20;;;;;;;9.92;97.80;101430.31;5057580;27;98096;-28
2023/01/07 04:21:04;;;;;;;2.45;1.33;;;;;;;9.95;98.19;101427.44;5057534;27;97968;-28
2023/01/07 04:23:29;;;;;;;3.15;1.30;;;;;;;9.92;98.28;101427.63;5057476;27;96665;-29
2023/01/07 04:25:54;;;;;;;8.10;2.03;;;;;;;9.93;98.27;101427.50;5057539;27;96829;-27
2023/01/07 04:28:20;;;;;;;2.85;1.58;;;;;;;9.92;98.03;101417.66;5055882;27;100740;-28
2023/01/07 04:30:45;;;;;;;5.43;1.63;;;;;;;9.92;98.35;101422.19;5057379;27;97880;-29
2023/01/07 04:33:10;;;;;;;4.05;1.90;;;;;;;9.92;98.29;101427.63;5056980;27;96634;-28
2023/01/07 04:35:38;;;;;;;2.17;1.40;;;;;;;9.91;98.44;101421.31;5057174;27;96820;-29
2023/01/07 04:38:03;;;;;;;2.95;1.73;;;;;;;9.93;98.15;101416.69;5056999;27;97508;-29
2023/01/07 04:40:28;;;;;;;4.20;1.98;;;;;;;9.94;98.49;101428.41;5057462;27;96874;-28
2023/01/07 04:42:54;;;;;;;2.15;1.40;;;;;;;9.94;98.83;101423.88;5057313;27;96640;-28
2023/01/07 04:45:19;;;;;;;4.38;2.08;;;;;;;9.90;99.07;101421.41;5057317;27;96680;-28
2023/01/07 04:47:44;;;;;;;5.32;2.00;;;;;;;9.89;99.61;101419.63;5057069;27;98022;-29
2023/01/07 04:50:10;;;;;;;4.18;2.28;;;;;;;9.85;99.81;101418.03;5057020;27;105354;-30
2023/01/07 04:52:35;;;;;;;3.58;1.00;;;;;;;9.86;100.00;101406.25;5057013;27;96527;-28
2023/01/07 04:55:01;;;;;;;5.75;1.23;;;;;;;9.84;100.00;101405.44;5055720;27;96886;-30
2023/01/07 04:57:26;;;;;;;3.38;1.52;;;;;;;9.85;99.97;101405.38;5056473;27;98131;-28
2023/01/07 04:59:51;;;;;;;2.67;1.42;;;;;;;9.81;100.00;101400.19;5055749;27;97893;-29
2023/01/07 05:02:16;;;;;;;3.30;1.85;;;;;;;9.84;100.00;101392.78;5057376;27;96550;-29
2023/01/07 05:04:43;;;;;;;3.35;1.40;;;;;;;9.81;100.00;101397.50;5057169;27;96859;-28
2023/01/07 05:07:09;;;;;;;2.58;1.60;;;;;;;9.77;100.00;101384.13;5055340;27;99612;-30
2023/01/07 05:09:34;;;;;;;2.67;1.60;;;;;;;9.78;100.00;101377.75;5055638;27;97449;-29
2023/01/07 05:11:59;;;;;;;3.42;1.45;;;;;;;9.78;100.00;101379.59;5057073;27;96578;-28
2023/01/07 05:14:25;;;;;;;3.58;2.08;;;;;;;9.79;100.00;101384.91;5057374;27;96826;-28
2023/01/07 05:16:50;;;;;;;2.88;1.98;;;;;;;9.77;100.00;101377.81;5056553;27;98007;-29
2023/01/07 05:19:15;;;;;;;2.85;1.73;;;;;;;9.76;100.00;101368.84;5056409;27;99037;-28
2023/01/07 05:21:41;;;;;;;3.92;2.10;;;;;;;9.75;100.00;101368.94;5055760;27;97167;-30
2023/01/07 05:24:07;;;;;;;1.00;0.95;;;;;;;9.75;100.00;101366.22;5056779;27;96748;-28
2023/01/07 05:26:33;;;;;;;5.70;1.65;;;;;;;9.75;100.00;101366.22;5054168;27;100903;-28
2023/01/07 05:28:58;;;;;;;2.20;1.65;;;;;;;9.75;99.92;101367.09;5054889;27;100803;-28
2023/01/07 05:31:24;;;;;;;4.03;1.88;;;;;;;9.75;99.84;101358.09;5056454;27;96433;-28
2023/01/07 05:33:49;;;;;;;3.15;1.77;;;;;;;9.75;99.62;101361.69;5056655;27;96642;-30
2023/01/07 05:36:14;;;;;;;2.63;1.73;;;;;;;9.74;99.37;101356.34;5056199;27;98027;-28
2023/01/07 05:38:40;;;;;;;7.53;1.63;;;;;;;9.75;99.54;101358.97;5056359;27;107602;-29
2023/01/07 05:41:05;;;;;;;3.10;1.40;;;;;;;9.75;99.38;101358.09;5056070;27;96474;-29
2023/01/07 05:43:31;;;;;;;6.50;1.73;;;;;;;9.71;99.05;101357.38;5056243;27;96822;-29
2023/01/07 05:45:57;;;;;;;2.65;1.52;;;;;;;9.72;99.11;101351.00;5055568;27;97894;-28
2023/01/07 05:48:23;;;;;;;4.22;2.13;;;;;;;9.70;99.09;101350.22;5055256;27;97841;-28
2023/01/07 05:50:48;;;;;;;3.90;1.70;;;;;;;9.68;98.91;101348.53;5056379;27;96864;-28
2023/01/07 05:53:14;;;;;;;2.55;1.75;;;;;;;9.66;98.74;101336.94;5056469;27;96750;-28
2023/01/07 05:55:39;;;;;;;3.05;1.83;;;;;;;9.67;98.74;101339.53;5055875;27;99375;-29
2023/01/07 05:58:06;;;;;;;2.83;1.73;;;;;;;9.66;98.61;101326.09;5054303;27;98990;-29
2023/01/07 06:00:32;;;;;;;3.95;1.73;;;;;;;9.66;98.28;101326.09;5056162;27;96511;-29
2023/01/07 06:02:57;;;;;;;4.72;1.45;;;;;;;9.66;98.39;101326.09;5055248;27;96775;-29
2023/01/07 06:05:23;;;;;;;3.70;1.48;;;;;;;9.61;98.31;101310.09;5055968;27;97907;-29
2023/01/07 06:07:48;;;;;;;3.20;1.38;;;;;;;9.62;98.04;101305.56;5055906;27;97952;-29
2023/01/07 06:10:14;;;;;;;3.10;1.05;;;;;;;9.64;98.21;101314.47;5054121;27;96697;-28
2023/01/07 06:12:39;;;;;;;1.40;0.93;;;;;;;9.59;97.89;101320.13;5055707;27;96802;-28
2023/01/07 06:15:08;;;;;;;1.75;1.45;;;;;;;9.61;97.65;101303.81;5054230;27;99512;-29
2023/01/07 06:17:34;;;;;;;2.85;1.67;;;;;;;9.62;97.66;101306.44;5054238;27;98936;-28
2023/01/07 06:19:59;;;;;;;2.33;1.38;;;;;;;9.62;97.40;101305.56;5055834;27;96605;-29
2023/01/07 06:22:25;;;;;;;2.53;1.33;;;;;;;9.61;97.62;101303.81;5054119;27;96803;-28
2023/01/07 06:24:50;;;;;;;1.70;1.10;;;;;;;9.61;97.23;101303.81;5054404;27;99380;-30
2023/01/07 06:27:16;;;;;;;4.18;1.95;;;;;;;9.57;96.68;101290.44;5053856;27;97982;-29
2023/01/07 06:29:41;;;;;;;2.25;1.27;;;;;;;9.61;96.53;101287.59;5055588;27;96531;-28
2023/01/07 06:32:06;;;;;;;3.58;1.02;;;;;;;9.61;96.43;101282.19;5056132;27;96852;-28
2023/01/07 06:34:32;;;;;;;1.25;0.75;;;;;;;9.56;96.22;101267.06;5054893;27;97535;-30
2023/01/07 06:36:57;;;;;;;1.48;0.95;;;;;;;9.56;96.16;101264.34;5055384;27;97790;-29
2023/01/07 06:39:22;;;;;;;1.33;1.00;;;;;;;9.57;95.87;101266.09;5055523;27;96527;-30
2023/01/07 06:41:48;;;;;;;3.60;1.15;;;;;;;9.60;95.88;101267.75;5055261;27;96791;-28
2023/01/07 06:44:13;;;;;;;1.42;0.88;;;;;;;9.61;95.74;101271.38;5055374;27;97904;-28
2023/01/07 06:46:38;;;;;;;2.05;1.02;;;;;;;9.60;95.33;101275.88;5055228;27;97296;-29
2023/01/07 06:49:04;;;;;;;0.95;0.70;;;;;;;9.61;95.11;101274.94;5055621;27;97037;-28
2023/01/07 06:51:29;;;;;;;3.38;0.80;;;;;;;9.64;94.42;101266.66;5055793;27;96781;-29
2023/01/07 06:53:54;;;;;;;0.95;0.75;;;;;;;9.65;94.17;101265.69;5055211;27;97644;-28
2023/01/07 06:56:20;;;;;;;2.10;0.88;;;;;;;9.68;93.70;101280.91;5055153;27;97762;-28
2023/01/07 06:58:45;;;;;;;3.13;0.98;;;;;;;9.71;93.40;101264.53;5054573;27;96665;-29
2023/01/07 07:01:10;;;;;;;1.30;0.80;;;;;;;9.73;93.04;101259.91;5055196;27;96968;-29
2023/01/07 07:03:36;;;;;;;2.33;1.10;;;;;;;9.76;92.91;101260.63;5054692;27;98842;-29
2023/01/07 07:06:01;;;;;;;3.13;0.85;;;;;;;9.77;92.61;101261.47;5054843;27;99367;-28
2023/01/07 07:08:27;;;;;;;1.02;0.63;;;;;;;9.79;92.03;101256.88;5054971;27;96589;-29
2023/01/07 07:10:52;;;;;;;4.18;0.65;;;;;;;9.80;91.26;101255.94;5054946;27;97085;-28
2023/01/07 07:13:17;;;;;;;1.50;0.68;;;;;;;9.83;91.62;101258.47;5054621;27;99573;-28
2023/01/07 07:15:43;;;;;;;0.75;0.45;;;;;;;9.81;90.44;101248.69;5055185;27;97772;-29
2023/01/07 07:18:08;;;;;;;2.55;0.57;;;;;;;9.83;89.84;101255.78;5055129;27;96827;-28
2023/01/07 07:20:34;;;;;;;1.65;0.82;;;;;;;9.85;89.91;101242.19;5055063;27;96873;-29
2023/01/07 07:23:00;;;;;;;1.25;0.65;;;;;;;9.85;89.56;101242.19;5053763;27;99465;-28
2023/01/07 07:25:26;;;;;;;1.15;0.55;;;;;;;9.86;88.80;101243.91;5053280;27;101029;-29
2023/01/07 07:27:51;;;;;;;1.15;0.55;;;;;;;9.85;88.73;101240.34;5054392;27;96800;-28
2023/01/07 07:30:16;;;;;;;1.30;0.60;;;;;;;9.87;87.85;101237.56;5053294;27;97495;-28
2023/01/07 07:32:42;;;;;;;3.22;0.93;;;;;;;9.84;87.54;101233.16;5054500;27;99395;-29
2023/01/07 07:35:08;;;;;;;1.55;0.75;;;;;;;9.87;87.84;101237.56;5054569;27;97292;-29
2023/01/07 07:37:34;;;;;;;2.85;0.60;;;;;;;9.88;87.03;101231.19;5053291;27;96631;-29
2023/01/07 07:39:59;;;;;;;0.85;0.68;;;;;;;9.89;87.20;101235.63;5055290;27;96783;-28
2023/01/07 07:42:24;;;;;;;0.88;0.47;;;;;;;9.89;87.00;101216.69;5054360;27;97854;-28
2023/01/07 07:44:50;;;;;;;5.25;0.40;;;;;;;9.86;87.02;101217.72;5054362;27;102477;-28
2023/01/07 07:47:15;;;;;;;0.65;0.35;;;;;;;9.86;86.35;101217.72;5054293;27;96463;-28
2023/01/07 07:49:40;;;;;;;0.40;0.35;;;;;;;9.88;86.27;101212.25;5054932;27;96747;-28
2023/01/07 07:52:06;;;;;;;1.20;0.63;;;;;;;9.86;86.12;101204.19;5054372;27;97919;-28
2023/01/07 07:54:31;;;;;;;1.40;0.60;;;;;;;9.86;86.31;101214.16;5054468;27;97817;-29
2023/01/07 07:56:57;;;;;;;0.60;0.40;;;;;;;9.87;85.89;101211.38;5054443;27;96585;-29
2023/01/07 07:59:23;;;;;;;0.47;0.40;;;;;;;9.87;85.76;101203.25;5054522;27;96778;-28
2023/01/07 08:01:49;;;;;;;0.45;0.38;;;;;;;9.86;85.93;101192.50;5052691;27;99166;-29
2023/01/07 08:04:14;;;;;;;3.45;0.40;;;;;;;9.85;85.54;101190.78;5054285;27;99238;-29
2023/01/07 08:06:40;;;;;;;0.38;0.30;;;;;;;9.89;85.98;101200.44;5054700;27;96575;-28
2023/01/07 08:09:05;;;;;;;1.17;0.40;;;;;;;9.87;85.82;101191.56;5054450;27;96755;-28
2023/01/07 08:11:30;;;;;;;2.15;0.38;;;;;;;9.89;86.45;101195.03;5054976;27;97868;-28
2023/01/07 08:13:55;;;;;;;0.47;0.38;;;;;;;9.86;86.58;101197.91;5057763;27;97741;-29
2023/01/07 08:16:21;;;;;;;0.70;0.60;;;;;;;9.85;86.83;101193.47;5057813;27;98367;-28
2023/01/07 08:18:46;;;;;;;0.98;0.43;;;;;;;9.82;86.89;101193.63;5057963;27;96808;-28
2023/01/07 08:21:11;;;;;;;1.10;0.60;;;;;;;9.80;87.07;101191.00;5057294;27;98691;-28
2023/01/07 08:23:37;;;;;;;2.50;0.63;;;;;;;9.80;87.05;101191.00;5057310;27;98190;-29
2023/01/07 08:26:03;;;;;;;0.90;0.55;;;;;;;9.79;86.85;101194.66;5057003;27;96646;-28
2023/01/07 08:28:30;;;;;;;1.02;0.65;;;;;;;9.78;87.24;101190.22;5057060;27;96755;-29
2023/01/07 08:30:56;;;;;;;0.55;0.50;;;;;;;9.76;86.38;101193.00;5055897;27;101022;-29
2023/01/07 08:33:21;;;;;;;2.58;0.82;;;;;;;9.78;86.22;101187.50;5057503;27;97734;-29
2023/01/07 08:35:47;;;;;;;0.77;0.43;;;;;;;9.79;86.08;101189.25;5057086;27;96459;-28
2023/01/07 08:38:12;;;;;;;0.28;0.25;;;;;;;9.81;86.18;101178.34;5056034;27;96813;-29
2023/01/07 08:40:38;;;;;;;0.63;0.40;;;;;;;9.85;86.37;101185.34;5056823;27;97851;-29
2023/01/07 08:43:05;;;;;;;0.65;0.35;;;;;;;9.81;86.14;101190.03;5057284;27;97783;-29
2023/01/07 08:45:31;;;;;;;0.20;0.20;;;;;;;9.83;86.17;101193.53;5055966;27;96617;-28
2023/01/07 08:47:57;;;;;;;2.55;0.80;;;;;;;9.84;85.77;101186.28;5055881;27;96789;-28
2023/01/07 08:50:28;;;;;;;0.70;0.40;;;;;;;9.84;84.69;101176.34;5055588;27;100907;-29
2023/01/07 08:52:53;;;;;;;1.17;0.43;;;;;;;9.85;84.37;101178.09;5055942;27;101339;-29
2023/01/07 08:55:19;;;;;;;0.55;0.32;;;;;;;9.85;85.05;101178.09;5057150;27;96642;-29
2023/01/07 08:57:46;;;;;;;0.57;0.50;;;;;;;9.86;84.56;101163.59;5057332;27;96737;-31
2023/01/07 09:00:13;;;;;;;0.35;0.30;;;;;;;9.87;84.30;101161.81;5054912;27;100849;-28
2023/01/07 09:02:38;;;;;;;1.17;0.43;;;;;;;9.86;84.17;101165.44;5055335;27;101884;-28
2023/01/07 09:05:04;;;;;;;0.40;0.38;;;;;;;9.86;84.17;101158.19;5057147;27;96542;-28
2023/01/07 09:07:30;;;;;;;0.73;0.50;;;;;;;9.87;83.49;101157.25;5055641;27;96805;-28
2023/01/07 09:09:55;;;;;;;0.98;0.63;;;;;;;9.89;83.57;101162.56;5056695;27;97942;-28
2023/01/07 09:12:21;;;;;;;0.10;0.10;;;;;;;9.88;83.67;101155.41;5056622;27;97792;-30
2023/01/07 09:14:46;;;;;;;6.80;0.60;;;;;;;9.91;83.71;101155.25;5057038;27;96700;-30
2023/01/07 09:17:11;;;;;;;3.10;0.40;;;;;;;9.88;83.43;101145.47;5057404;27;96752;-31
2023/01/07 09:19:37;;;;;;;1.08;0.50;;;;;;;9.90;83.01;101148.09;5056691;27;97428;-30
2023/01/07 09:22:02;;;;;;;0.55;0.43;;;;;;;9.93;83.45;101137.09;5055553;27;99121;-30
2023/01/07 09:24:27;;;;;;;0.55;0.40;;;;;;;9.94;83.84;101144.28;5055869;27;96550;-30
2023/01/07 09:26:53;;;;;;;0.50;0.43;;;;;;;9.91;84.01;101129.06;5055979;27;96946;-30
2023/01/07 09:29:18;;;;;;;0.75;0.47;;;;;;;9.90;83.14;101121.03;5056372;27;104265;-28
2023/01/07 09:31:44;;;;;;;1.40;0.35;;;;;;;9.90;82.81;101124.63;5056322;27;97812;-30
2023/01/07 09:34:09;;;;;;;1.10;0.63;;;;;;;9.92;82.28;101124.53;5056589;27;96501;-28
2023/01/07 09:36:34;;;;;;;0.85;0.43;;;;;;;9.92;82.38;101113.72;5056433;27;96773;-28
2023/01/07 09:39:00;;;;;;;1.40;0.63;;;;;;;9.95;83.10;101121.66;5056398;27;97797;-29
2023/01/07 09:41:51;;;;;;;0.65;0.30;;;;;;;9.95;82.13;101106.28;5056077;27;99063;-28
2023/01/07 09:44:19;;;;;;;0.30;0.30;;;;;;;9.97;81.90;101098.09;5056422;27;96594;-29
2023/01/07 09:46:47;;;;;;;1.05;0.50;;;;;;;9.97;81.08;101089.97;5055159;27;96793;-29
2023/01/07 09:49:17;;;;;;;0.30;0.30;;;;;;;9.99;80.14;101088.06;5054265;27;99331;-30
2023/01/07 09:51:53;;;;;;;0.93;0.40;;;;;;;10.05;80.80;101092.25;5054640;27;100764;-28
2023/01/07 09:54:30;;;;;;;0.15;0.05;;;;;;;10.07;79.46;101087.63;5055066;27;96514;-28
2023/01/07 09:56:56;;;;;;;0.32;0.30;;;;;;;10.10;78.45;101072.09;5054920;27;96707;-29
2023/01/07 09:59:21;;;;;;;0.95;0.38;;;;;;;10.17;77.59;101081.59;5056014;27;97546;-28
2023/01/07 10:02:31;;;;;;;0.63;0.45;;;;;;;10.23;77.47;101072.28;5055863;27;97260;-30
2023/01/07 10:05:39;;;;;;;0.30;0.30;;;;;;;10.36;76.86;101077.91;5034971;27;96742;-28
2023/01/07 10:08:20;;;;;;;0.63;0.43;;;;;;;10.47;75.25;101053.78;5048285;27;97053;-28
2023/01/07 10:10:54;;;;;;;0.05;0.05;;;;;;;10.62;74.48;101052.88;5055876;27;97479;-29
2023/01/07 10:13:38;;;;;;;0.57;0.30;;;;;;;10.78;73.81;101038.44;5054294;27;100819;-30
2023/01/07 10:16:22;;;;;;;0.08;0.08;;;;;;;10.95;73.50;101026.59;5055561;27;96621;-28
2023/01/07 10:18:59;;;;;;;0.08;0.08;;;;;;;10.91;71.78;101036.75;5054706;27;96796;-28
2023/01/07 10:21:32;;;;;;;1.02;0.50;;;;;;;10.93;71.64;101023.97;5054224;27;100940;-28
2023/01/07 10:24:07;;;;;;;0.20;0.20;;;;;;;10.93;73.15;101025.81;5054107;27;101008;-30
2023/01/07 10:26:38;;;;;;;0.32;0.32;;;;;;;10.93;73.74;101032.09;5053892;27;96887;-28
2023/01/07 10:29:24;;;;;;;0.65;0.25;;;;;;;10.97;72.93;101032.81;5054151;27;96741;-28
2023/01/07 10:31:53;;;;;;;0.68;0.43;;;;;;;11.15;73.00;101028.09;5053928;27;100990;-29
2023/01/07 10:34:23;;;;;;;0.10;0.10;;;;;;;11.28;71.91;101018.25;5053929;27;100898;-28
2023/01/07 10:37:26;;;;;;;1.80;0.50;;;;;;;11.51;71.99;101015.94;5054112;27;96587;-29
2023/01/07 10:40:19;;;;;;;0.47;0.35;;;;;;;11.68;72.60;101007.63;5053901;27;96827;-29
2023/01/07 10:42:56;;;;;;;0.80;0.43;;;;;;;11.67;73.45;100995.00;5053420;27;101329;-28
2023/01/07 10:45:33;;;;;;;0.40;0.30;;;;;;;11.65;71.94;100986.94;5053859;27;101666;-29
2023/01/07 10:48:25;;;;;;;0.75;0.40;;;;;;;11.75;71.82;100970.09;5055477;27;96440;-28
2023/01/07 10:51:05;;;;;;;0.80;0.57;;;;;;;11.93;71.94;100968.94;5055704;27;96608;-29
2023/01/07 10:53:48;;;;;;;1.15;0.50;;;;;;;12.09;70.57;100971.50;5054958;27;98014;-29
2023/01/07 10:56:17;;;;;;;0.40;0.30;;;;;;;12.40;70.62;100954.03;5053595;27;100779;-29
2023/01/07 10:58:45;;;;;;;1.27;0.50;;;;;;;12.33;70.10;100945.44;5055189;27;96679;-28
2023/01/07 11:01:30;;;;;;;1.15;0.68;;;;;;;11.98;70.06;100938.75;5054190;27;96920;-29
2023/01/07 11:03:58;;;;;;;0.35;0.28;;;;;;;11.92;70.29;100939.16;5053590;27;101352;-28
2023/01/07 11:06:38;;;;;;;0.30;0.25;;;;;;;11.91;70.48;100927.44;5053297;27;100773;-29
2023/01/07 11:09:09;;;;;;;0.70;0.45;;;;;;;11.88;70.58;100914.94;5054614;27;96742;-28
2023/01/07 11:11:36;;;;;;;0.63;0.50;;;;;;;11.75;70.69;100911.28;5055350;27;96554;-29
2023/01/07 11:14:26;;;;;;;0.88;0.50;;;;;;;11.88;70.79;100909.50;5053288;27;100970;-29
2023/01/07 11:17:04;;;;;;;0.80;0.50;;;;;;;11.80;70.49;100903.69;5053012;27;100787;-28
2023/01/07 11:19:47;;;;;;;0.47;0.20;;;;;;;11.56;70.43;100894.44;5053745;27;96845;-29
2023/01/07 11:22:25;;;;;;;0.43;0.30;;;;;;;11.57;70.29;100896.19;5054724;27;96681;-29
2023/01/07 11:24:52;;;;;;;0.65;0.40;;;;;;;11.44;71.64;100893.38;5054778;27;98053;-28
2023/01/07 11:27:20;;;;;;;0.20;0.20;;;;;;;11.31;71.23;100898.72;5052879;27;98094;-28
2023/01/07 11:30:09;;;;;;;1.90;0.50;;;;;;;11.34;71.82;100882.25;5053516;27;96564;-28
2023/01/07 11:32:39;;;;;;;0.30;0.20;;;;;;;11.35;71.84;100878.59;5055099;27;97109;-28
2023/01/07 11:35:06;;;;;;;0.32;0.32;;;;;;;11.30;71.67;100888.88;5053969;27;97957;-28
2023/01/07 11:37:41;;;;;;;0.63;0.45;;;;;;;11.35;72.02;100877.72;5052979;27;101791;-28
2023/01/07 11:40:13;;;;;;;0.68;0.63;;;;;;;11.38;71.80;100875.66;5053164;27;96591;-30
2023/01/07 11:42:59;;;;;;;1.80;0.57;;;;;;;11.34;72.38;100865.97;5054626;27;96598;-28